Time;durP1;ratioP1;P1;durP2;ratioP2;P2;SDS_P1;SDS_P2;PMS_P1;PMS_P2;Temp;Humidity;BMP_temperature;BMP_pressure;BME280_temperature;BME280_humidity;BME280_pressure;Samples;Min_cycle;Max_cycle;Signal;HPM_P1;HPM_P2
2022/10/31 00:00:04;;;;;;;;;;;24.20;42.40;;;;;;492274;242;1154;-74
2022/10/31 00:02:05;;;;;;;;;;;24.20;42.30;;;;;;492047;242;1994;-74
2022/10/31 00:04:06;;;;;;;;;;;24.20;42.30;;;;;;492258;242;1184;-74
2022/10/31 00:06:08;;;;;;;;;;;24.30;42.20;;;;;;492063;242;1568;-74
2022/10/31 00:08:09;;;;;;;;;;;24.30;42.10;;;;;;492164;242;1218;-74
2022/10/31 00:10:10;;;;;;;;;;;24.30;42.10;;;;;;492177;242;1332;-74
2022/10/31 00:12:12;;;;;;;;;;;24.30;42.00;;;;;;492229;242;2168;-74
2022/10/31 00:14:13;;;;;;;;;;;24.30;42.10;;;;;;492213;242;1313;-74
2022/10/31 00:16:14;;;;;;;;;;;24.30;42.00;;;;;;492193;242;1249;-75
2022/10/31 00:18:16;;;;;;;;;;;24.20;42.10;;;;;;492240;242;1604;-74
2022/10/31 00:20:17;;;;;;;;;;;24.30;42.00;;;;;;492148;242;1312;-74
2022/10/31 00:22:18;;;;;;;;;;;24.30;41.90;;;;;;492225;242;1212;-75
2022/10/31 00:24:20;;;;;;;;;;;24.30;41.90;;;;;;492259;242;1235;-74
2022/10/31 00:26:21;;;;;;;;;;;24.30;41.90;;;;;;492225;242;1538;-74
2022/10/31 00:28:22;;;;;;;;;;;24.30;41.80;;;;;;492229;242;1389;-74
2022/10/31 00:30:24;;;;;;;;;;;24.30;41.80;;;;;;492252;242;1367;-74
2022/10/31 00:32:25;;;;;;;;;;;24.30;41.90;;;;;;492047;242;2180;-74
2022/10/31 00:34:26;;;;;;;;;;;24.30;41.70;;;;;;492228;242;1239;-74
2022/10/31 00:36:28;;;;;;;;;;;24.30;41.80;;;;;;492077;242;1432;-75
2022/10/31 00:38:29;;;;;;;;;;;24.30;41.70;;;;;;492230;242;1253;-75
2022/10/31 00:40:30;;;;;;;;;;;24.30;41.70;;;;;;492241;242;1201;-74
2022/10/31 00:42:32;;;;;;;;;;;24.20;41.60;;;;;;492131;242;1617;-75
2022/10/31 00:44:33;;;;;;;;;;;24.20;41.80;;;;;;492214;242;1264;-74
2022/10/31 00:46:34;;;;;;;;;;;24.20;41.70;;;;;;492072;242;1564;-74
2022/10/31 00:48:36;;;;;;;;;;;24.20;41.80;;;;;;492238;242;1304;-74
2022/10/31 00:50:37;;;;;;;;;;;24.30;41.80;;;;;;492223;242;1207;-74
2022/10/31 00:52:38;;;;;;;;;;;24.20;41.70;;;;;;492177;242;2180;-74
2022/10/31 00:54:40;;;;;;;;;;;24.20;41.70;;;;;;492240;242;1343;-74
2022/10/31 00:56:41;;;;;;;;;;;24.20;41.60;;;;;;492277;242;1286;-74
2022/10/31 00:58:42;;;;;;;;;;;24.20;41.60;;;;;;492318;242;1255;-74
2022/10/31 01:00:43;;;;;;;;;;;24.20;41.60;;;;;;492243;242;1256;-75
2022/10/31 01:02:45;;;;;;;;;;;24.30;41.60;;;;;;492211;242;1328;-74
2022/10/31 01:04:46;;;;;;;;;;;24.30;41.60;;;;;;492269;242;1338;-74
2022/10/31 01:06:47;;;;;;;;;;;24.20;41.60;;;;;;492202;242;1248;-74
2022/10/31 01:08:49;;;;;;;;;;;24.20;41.60;;;;;;492267;242;1358;-74
2022/10/31 01:10:50;;;;;;;;;;;24.30;41.50;;;;;;492353;242;1176;-75
2022/10/31 01:12:51;;;;;;;;;;;24.40;41.40;;;;;;492270;242;2183;-74
2022/10/31 01:14:53;;;;;;;;;;;24.30;41.50;;;;;;492223;242;1133;-74
2022/10/31 01:16:54;;;;;;;;;;;24.30;41.50;;;;;;492336;242;1207;-74
2022/10/31 01:18:55;;;;;;;;;;;24.20;41.60;;;;;;492314;242;1332;-74
2022/10/31 01:20:57;;;;;;;;;;;24.20;41.60;;;;;;492308;242;1257;-74
2022/10/31 01:22:58;;;;;;;;;;;24.20;41.50;;;;;;492276;242;1206;-74
2022/10/31 01:24:59;;;;;;;;;;;24.20;41.50;;;;;;492320;242;1286;-74
2022/10/31 01:27:01;;;;;;;;;;;24.30;41.50;;;;;;492245;242;1133;-74
2022/10/31 01:29:02;;;;;;;;;;;24.20;41.50;;;;;;492286;242;1179;-74
2022/10/31 01:31:03;;;;;;;;;;;24.20;41.40;;;;;;492228;242;1194;-74
2022/10/31 01:33:05;;;;;;;;;;;24.20;41.50;;;;;;492217;242;2179;-74
2022/10/31 01:35:06;;;;;;;;;;;24.20;41.40;;;;;;492340;242;1228;-74
2022/10/31 01:37:07;;;;;;;;;;;24.30;41.40;;;;;;492217;242;1127;-74
2022/10/31 01:39:09;;;;;;;;;;;24.20;41.40;;;;;;492334;242;1237;-74
2022/10/31 01:41:10;;;;;;;;;;;24.20;41.30;;;;;;492258;242;1187;-74
2022/10/31 01:43:11;;;;;;;;;;;24.20;41.30;;;;;;492357;242;1176;-74
2022/10/31 01:45:13;;;;;;;;;;;24.20;41.40;;;;;;492291;242;1184;-74
2022/10/31 01:47:14;;;;;;;;;;;24.30;41.40;;;;;;492250;242;1268;-74
2022/10/31 01:49:15;;;;;;;;;;;24.20;41.40;;;;;;492294;242;1241;-74
2022/10/31 01:51:17;;;;;;;;;;;24.00;41.60;;;;;;492358;242;1196;-74
2022/10/31 01:53:18;;;;;;;;;;;24.00;41.60;;;;;;492230;242;2191;-74
2022/10/31 01:55:19;;;;;;;;;;;24.00;41.80;;;;;;492355;242;1310;-75
2022/10/31 01:57:21;;;;;;;;;;;23.90;41.80;;;;;;492295;242;1305;-74
2022/10/31 01:59:22;;;;;;;;;;;24.00;41.80;;;;;;492287;242;1212;-74
2022/10/31 02:01:23;;;;;;;;;;;24.00;41.70;;;;;;492291;242;1286;-74
2022/10/31 02:03:25;;;;;;;;;;;24.00;41.80;;;;;;492295;242;1536;-74
2022/10/31 02:05:26;;;;;;;;;;;24.00;41.70;;;;;;492268;242;1186;-74
2022/10/31 02:07:27;;;;;;;;;;;23.90;41.70;;;;;;492234;242;1262;-74
2022/10/31 02:09:29;;;;;;;;;;;23.90;41.80;;;;;;492245;242;1348;-74
2022/10/31 02:11:30;;;;;;;;;;;23.80;41.90;;;;;;492082;242;1497;-74
2022/10/31 02:13:31;;;;;;;;;;;23.80;41.90;;;;;;492332;242;2184;-74
2022/10/31 02:15:33;;;;;;;;;;;23.80;41.80;;;;;;492268;242;1393;-74
2022/10/31 02:17:34;;;;;;;;;;;23.90;41.70;;;;;;492093;242;1276;-74
2022/10/31 02:19:35;;;;;;;;;;;23.80;41.80;;;;;;492275;242;1201;-74
2022/10/31 02:21:37;;;;;;;;;;;23.90;41.70;;;;;;492092;242;1576;-74
2022/10/31 02:23:38;;;;;;;;;;;23.90;41.60;;;;;;492296;242;1370;-74
2022/10/31 02:25:39;;;;;;;;;;;23.80;41.60;;;;;;492199;242;1681;-74
2022/10/31 02:27:41;;;;;;;;;;;23.80;41.60;;;;;;492221;242;1610;-74
2022/10/31 02:29:42;;;;;;;;;;;23.90;41.70;;;;;;492330;242;1245;-74
2022/10/31 02:31:43;;;;;;;;;;;23.80;41.60;;;;;;492322;242;1256;-74
2022/10/31 02:33:45;;;;;;;;;;;23.80;41.60;;;;;;492293;242;2183;-74
2022/10/31 02:35:46;;;;;;;;;;;23.80;41.70;;;;;;492271;242;1157;-74
2022/10/31 02:37:47;;;;;;;;;;;23.80;41.60;;;;;;492303;242;1261;-74
2022/10/31 02:39:49;;;;;;;;;;;23.80;41.60;;;;;;492234;242;1249;-74
2022/10/31 02:41:50;;;;;;;;;;;23.80;41.60;;;;;;492451;242;1183;-75
2022/10/31 02:43:51;;;;;;;;;;;23.80;41.60;;;;;;492313;242;1328;-74
2022/10/31 02:45:53;;;;;;;;;;;23.80;41.50;;;;;;492306;242;1419;-74
2022/10/31 02:47:54;;;;;;;;;;;23.80;41.50;;;;;;492263;242;1568;-74
2022/10/31 02:49:55;;;;;;;;;;;23.90;41.40;;;;;;492243;242;1217;-74
2022/10/31 02:51:57;;;;;;;;;;;23.80;41.40;;;;;;492290;242;1524;-74
2022/10/31 02:53:58;;;;;;;;;;;23.90;41.40;;;;;;492286;242;2141;-74
2022/10/31 02:55:59;;;;;;;;;;;23.80;41.30;;;;;;492276;242;1270;-74
2022/10/31 02:58:01;;;;;;;;;;;23.80;41.40;;;;;;492371;242;1256;-74
2022/10/31 03:00:02;;;;;;;;;;;23.80;41.30;;;;;;492277;242;1251;-74
2022/10/31 03:02:03;;;;;;;;;;;23.80;41.40;;;;;;492232;242;1201;-74
2022/10/31 03:04:05;;;;;;;;;;;23.80;41.30;;;;;;492245;242;1235;-74
2022/10/31 03:06:06;;;;;;;;;;;23.90;41.20;;;;;;492322;242;1165;-74
2022/10/31 03:08:07;;;;;;;;;;;23.90;41.10;;;;;;492247;242;1187;-74
2022/10/31 03:10:09;;;;;;;;;;;23.80;41.20;;;;;;492304;242;1344;-74
2022/10/31 03:12:10;;;;;;;;;;;23.80;41.40;;;;;;492075;242;1518;-74
2022/10/31 03:14:11;;;;;;;;;;;23.80;41.30;;;;;;492298;242;2191;-74
2022/10/31 03:16:13;;;;;;;;;;;23.80;41.30;;;;;;492044;242;1246;-74
2022/10/31 03:18:14;;;;;;;;;;;23.80;41.40;;;;;;492232;242;1291;-75
2022/10/31 03:20:15;;;;;;;;;;;23.80;41.40;;;;;;492261;242;1213;-75
2022/10/31 03:22:17;;;;;;;;;;;23.80;41.20;;;;;;492091;242;1557;-74
2022/10/31 03:24:18;;;;;;;;;;;23.80;41.20;;;;;;492261;242;1208;-75
2022/10/31 03:26:19;;;;;;;;;;;23.90;41.20;;;;;;492164;242;1582;-74
2022/10/31 03:28:21;;;;;;;;;;;23.90;41.10;;;;;;492320;242;1223;-74
2022/10/31 03:30:22;;;;;;;;;;;23.90;41.10;;;;;;492262;242;1239;-74
2022/10/31 03:32:23;;;;;;;;;;;23.80;41.00;;;;;;492344;242;1375;-72
2022/10/31 03:34:25;;;;;;;;;;;23.80;41.10;;;;;;492255;242;2179;-71
2022/10/31 03:36:26;;;;;;;;;;;23.80;41.10;;;;;;492275;242;1222;-71
2022/10/31 03:38:27;;;;;;;;;;;23.70;41.10;;;;;;492249;242;1263;-71
2022/10/31 03:40:29;;;;;;;;;;;23.80;41.10;;;;;;492270;242;1356;-71
2022/10/31 03:42:30;;;;;;;;;;;23.70;41.00;;;;;;492264;242;1329;-72
2022/10/31 03:44:31;;;;;;;;;;;23.70;41.20;;;;;;492234;242;1351;-72
2022/10/31 03:46:32;;;;;;;;;;;23.60;41.20;;;;;;492297;242;1298;-72
2022/10/31 03:48:34;;;;;;;;;;;23.50;41.40;;;;;;492314;242;1196;-74
2022/10/31 03:50:35;;;;;;;;;;;23.50;41.50;;;;;;492270;242;1230;-74
2022/10/31 03:52:36;;;;;;;;;;;23.50;41.50;;;;;;492249;242;1422;-74
2022/10/31 03:54:38;;;;;;;;;;;23.50;41.50;;;;;;492284;242;2185;-74
2022/10/31 03:56:39;;;;;;;;;;;23.40;41.50;;;;;;492052;242;1552;-74
2022/10/31 03:58:40;;;;;;;;;;;23.40;41.40;;;;;;492282;242;1266;-74
2022/10/31 04:00:42;;;;;;;;;;;23.40;41.40;;;;;;492261;242;1197;-74
2022/10/31 04:02:43;;;;;;;;;;;23.40;41.50;;;;;;492148;242;1800;-74
2022/10/31 04:04:44;;;;;;;;;;;23.40;41.50;;;;;;492232;242;1288;-74
2022/10/31 04:06:46;;;;;;;;;;;23.40;41.50;;;;;;492066;242;1554;-74
2022/10/31 04:08:47;;;;;;;;;;;23.40;41.50;;;;;;492213;242;1217;-75
2022/10/31 04:10:48;;;;;;;;;;;23.40;41.40;;;;;;492134;242;1497;-75
2022/10/31 04:12:50;;;;;;;;;;;23.50;41.20;;;;;;492194;242;1517;-74
2022/10/31 04:14:51;;;;;;;;;;;23.50;41.20;;;;;;492256;242;2191;-74
2022/10/31 04:16:52;;;;;;;;;;;23.50;41.30;;;;;;492036;242;1582;-74
2022/10/31 04:18:54;;;;;;;;;;;23.50;41.40;;;;;;492241;242;1335;-74
2022/10/31 04:20:55;;;;;;;;;;;23.50;41.30;;;;;;492182;242;1635;-74
2022/10/31 04:22:56;;;;;;;;;;;23.40;41.40;;;;;;492150;242;1256;-74
2022/10/31 04:24:58;;;;;;;;;;;23.50;41.50;;;;;;492255;242;1265;-74
2022/10/31 04:26:59;;;;;;;;;;;23.40;41.50;;;;;;492153;242;1634;-74
2022/10/31 04:29:00;;;;;;;;;;;23.40;41.50;;;;;;492344;242;1288;-74
2022/10/31 04:31:02;;;;;;;;;;;23.40;41.50;;;;;;492290;242;1175;-74
2022/10/31 04:33:03;;;;;;;;;;;23.40;41.50;;;;;;492243;242;1584;-74
2022/10/31 04:35:04;;;;;;;;;;;23.40;41.50;;;;;;492210;242;2192;-74
2022/10/31 04:37:06;;;;;;;;;;;23.40;41.50;;;;;;492240;242;1235;-74
2022/10/31 04:39:07;;;;;;;;;;;23.40;41.30;;;;;;492316;242;1389;-74
2022/10/31 04:41:08;;;;;;;;;;;23.50;41.30;;;;;;492345;242;1271;-74
2022/10/31 04:43:10;;;;;;;;;;;23.40;41.30;;;;;;492320;242;1280;-74
2022/10/31 04:45:11;;;;;;;;;;;23.40;41.20;;;;;;492240;242;1220;-74
2022/10/31 04:47:12;;;;;;;;;;;23.40;41.20;;;;;;492311;242;1241;-74
2022/10/31 04:49:13;;;;;;;;;;;23.40;41.20;;;;;;492291;242;1305;-74
2022/10/31 04:51:15;;;;;;;;;;;23.40;41.00;;;;;;492393;242;1172;-74
2022/10/31 04:53:16;;;;;;;;;;;23.50;41.00;;;;;;492277;242;1131;-74
2022/10/31 04:55:17;;;;;;;;;;;23.70;40.60;;;;;;492330;242;2191;-74
2022/10/31 04:57:19;;;;;;;;;;;23.80;40.30;;;;;;492312;242;1213;-74
2022/10/31 04:59:20;;;;;;;;;;;23.90;40.10;;;;;;492311;242;1278;-74
2022/10/31 05:01:21;;;;;;;;;;;24.00;39.80;;;;;;492312;242;1240;-74
2022/10/31 05:03:23;;;;;;;;;;;24.10;39.80;;;;;;492283;242;1285;-74
2022/10/31 05:05:24;;;;;;;;;;;24.10;39.60;;;;;;492379;242;1247;-75
2022/10/31 05:07:25;;;;;;;;;;;24.20;39.50;;;;;;492286;242;1187;-74
2022/10/31 05:09:27;;;;;;;;;;;24.10;39.40;;;;;;492318;242;1156;-74
2022/10/31 05:11:28;;;;;;;;;;;24.10;39.40;;;;;;492225;242;1225;-74
2022/10/31 05:13:29;;;;;;;;;;;24.10;39.40;;;;;;492247;242;1184;-74
2022/10/31 05:15:31;;;;;;;;;;;24.20;39.30;;;;;;492206;242;2184;-74
2022/10/31 05:17:32;;;;;;;;;;;24.10;39.20;;;;;;492254;242;1170;-74
2022/10/31 05:19:33;;;;;;;;;;;24.20;39.10;;;;;;492214;242;1249;-74
2022/10/31 05:21:35;;;;;;;;;;;24.20;39.10;;;;;;492281;242;1198;-74
2022/10/31 05:23:36;;;;;;;;;;;24.20;39.10;;;;;;492203;242;1307;-74
2022/10/31 05:25:37;;;;;;;;;;;24.10;39.10;;;;;;492259;242;1246;-74
2022/10/31 05:27:39;;;;;;;;;;;24.20;39.10;;;;;;492281;242;1497;-74
2022/10/31 05:29:40;;;;;;;;;;;24.10;39.20;;;;;;492236;242;1248;-74
2022/10/31 05:31:41;;;;;;;;;;;24.10;39.20;;;;;;492083;242;1480;-75
2022/10/31 05:33:43;;;;;;;;;;;24.10;39.20;;;;;;492227;242;1210;-74
2022/10/31 05:35:44;;;;;;;;;;;24.20;39.10;;;;;;492244;242;2191;-74
2022/10/31 05:37:45;;;;;;;;;;;24.20;39.00;;;;;;492088;242;1549;-74
2022/10/31 05:39:47;;;;;;;;;;;24.20;38.90;;;;;;492241;242;1204;-74
2022/10/31 05:41:48;;;;;;;;;;;24.20;38.90;;;;;;492070;242;1296;-74
2022/10/31 05:43:49;;;;;;;;;;;24.30;38.90;;;;;;492277;242;1191;-74
2022/10/31 05:45:50;;;;;;;;;;;24.20;38.80;;;;;;492130;242;1529;-74
2022/10/31 05:47:52;;;;;;;;;;;24.20;38.80;;;;;;492105;242;1157;-74
2022/10/31 05:49:53;;;;;;;;;;;24.20;38.80;;;;;;492203;242;1281;-74
2022/10/31 05:51:54;;;;;;;;;;;24.30;38.70;;;;;;492025;242;1564;-74
2022/10/31 05:53:56;;;;;;;;;;;24.20;38.70;;;;;;492177;242;1243;-74
2022/10/31 05:55:57;;;;;;;;;;;24.20;38.70;;;;;;492265;242;2160;-75
2022/10/31 05:57:58;;;;;;;;;;;24.30;38.70;;;;;;492222;242;1167;-74
2022/10/31 06:00:00;;;;;;;;;;;24.30;38.60;;;;;;492206;242;1255;-74
2022/10/31 06:02:01;;;;;;;;;;;24.30;38.50;;;;;;492268;242;1216;-74
2022/10/31 06:04:02;;;;;;;;;;;24.30;38.50;;;;;;492208;242;1191;-74
2022/10/31 06:06:04;;;;;;;;;;;24.30;38.50;;;;;;492230;242;1177;-74
2022/10/31 06:08:05;;;;;;;;;;;24.30;38.50;;;;;;492230;242;1307;-74
2022/10/31 06:10:06;;;;;;;;;;;24.30;38.60;;;;;;492210;242;1205;-74
2022/10/31 06:12:08;;;;;;;;;;;24.30;38.50;;;;;;492041;242;1658;-74
2022/10/31 06:14:09;;;;;;;;;;;24.30;38.60;;;;;;492249;242;1344;-74
2022/10/31 06:16:10;;;;;;;;;;;24.20;38.50;;;;;;492083;242;2192;-74
2022/10/31 06:18:12;;;;;;;;;;;24.30;38.50;;;;;;492250;242;1192;-74
2022/10/31 06:20:13;;;;;;;;;;;24.20;38.50;;;;;;492270;242;1640;-74
2022/10/31 06:22:14;;;;;;;;;;;24.20;38.50;;;;;;492019;242;1944;-74
2022/10/31 06:24:16;;;;;;;;;;;24.20;38.50;;;;;;492300;242;1584;-74
2022/10/31 06:26:17;;;;;;;;;;;24.30;38.40;;;;;;492013;242;1734;-74
2022/10/31 06:28:18;;;;;;;;;;;24.20;38.40;;;;;;492234;242;1203;-74
2022/10/31 06:30:20;;;;;;;;;;;24.30;38.30;;;;;;492265;242;1155;-74
2022/10/31 06:32:21;;;;;;;;;;;24.30;38.40;;;;;;492241;242;1195;-74
2022/10/31 06:34:22;;;;;;;;;;;24.30;38.30;;;;;;492241;242;1657;-74
2022/10/31 06:36:24;;;;;;;;;;;24.20;38.30;;;;;;492230;242;2116;-74
2022/10/31 06:38:25;;;;;;;;;;;24.30;38.30;;;;;;492279;242;1234;-74
2022/10/31 06:40:26;;;;;;;;;;;24.20;38.40;;;;;;492238;242;1243;-74
2022/10/31 06:42:27;;;;;;;;;;;24.20;38.40;;;;;;492201;242;1581;-74
2022/10/31 06:44:29;;;;;;;;;;;24.30;38.40;;;;;;492267;242;1171;-74
2022/10/31 06:46:30;;;;;;;;;;;24.20;38.30;;;;;;492270;242;1189;-74
2022/10/31 06:48:32;;;;;;;;;;;24.20;38.40;;;;;;492272;242;1240;-74
2022/10/31 06:50:33;;;;;;;;;;;24.20;38.50;;;;;;492298;242;1280;-74
2022/10/31 06:52:34;;;;;;;;;;;24.20;38.50;;;;;;492242;242;1224;-74
2022/10/31 06:54:35;;;;;;;;;;;24.20;38.40;;;;;;492370;242;2164;-74
2022/10/31 06:56:37;;;;;;;;;;;24.30;38.40;;;;;;492302;242;1203;-74
2022/10/31 06:58:38;;;;;;;;;;;24.30;38.30;;;;;;492229;242;1216;-74
2022/10/31 07:00:39;;;;;;;;;;;24.40;38.40;;;;;;492262;242;1346;-74
2022/10/31 07:02:41;;;;;;;;;;;24.40;38.30;;;;;;492226;242;1216;-74
2022/10/31 07:04:42;;;;;;;;;;;24.40;38.30;;;;;;492241;242;1182;-74
2022/10/31 07:06:43;;;;;;;;;;;24.40;38.30;;;;;;492212;242;1232;-74
2022/10/31 07:08:45;;;;;;;;;;;24.40;38.40;;;;;;492240;242;1234;-74
2022/10/31 07:10:46;;;;;;;;;;;24.40;38.50;;;;;;492106;242;1500;-74
2022/10/31 07:12:47;;;;;;;;;;;24.40;38.40;;;;;;492139;242;1696;-74
2022/10/31 07:14:49;;;;;;;;;;;24.50;38.60;;;;;;492233;242;2180;-75
2022/10/31 07:16:50;;;;;;;;;;;24.40;38.50;;;;;;492028;242;1173;-75
2022/10/31 07:18:52;;;;;;;;;;;24.40;38.60;;;;;;492193;242;1548;-75
2022/10/31 07:20:53;;;;;;;;;;;24.40;38.70;;;;;;492005;242;1565;-74
2022/10/31 07:22:54;;;;;;;;;;;24.40;38.80;;;;;;492149;242;1365;-74
2022/10/31 07:24:56;;;;;;;;;;;24.30;38.80;;;;;;492216;242;1214;-74
2022/10/31 07:26:57;;;;;;;;;;;24.30;38.90;;;;;;492067;242;1568;-74
2022/10/31 07:28:59;;;;;;;;;;;24.30;39.10;;;;;;492223;242;1221;-74
2022/10/31 07:31:00;;;;;;;;;;;24.30;39.30;;;;;;492223;242;1252;-74
2022/10/31 07:33:02;;;;;;;;;;;24.20;39.40;;;;;;492306;242;1172;-74
2022/10/31 07:35:03;;;;;;;;;;;24.20;39.60;;;;;;492229;242;2187;-74
2022/10/31 07:37:04;;;;;;;;;;;24.10;39.70;;;;;;492221;242;1256;-74
2022/10/31 07:39:06;;;;;;;;;;;24.00;39.90;;;;;;492231;242;1206;-74
2022/10/31 07:41:07;;;;;;;;;;;24.00;40.00;;;;;;492208;242;1349;-74
2022/10/31 07:43:08;;;;;;;;;;;24.00;40.20;;;;;;492241;242;1361;-74
2022/10/31 07:45:10;;;;;;;;;;;24.00;40.20;;;;;;492261;242;1357;-74
2022/10/31 07:47:11;;;;;;;;;;;24.00;40.40;;;;;;492203;242;1291;-74
2022/10/31 07:49:12;;;;;;;;;;;23.70;40.80;;;;;;492322;242;1312;-74
2022/10/31 07:51:14;;;;;;;;;;;23.50;41.40;;;;;;492246;242;1264;-74
2022/10/31 07:53:15;;;;;;;;;;;23.40;41.80;;;;;;492199;242;1331;-74
2022/10/31 07:55:16;;;;;;;;;;;23.30;42.10;;;;;;492173;242;2160;-74
2022/10/31 07:57:18;;;;;;;;;;;23.30;42.30;;;;;;492238;242;1255;-74
2022/10/31 07:59:19;;;;;;;;;;;23.20;42.60;;;;;;492278;242;1224;-74
2022/10/31 08:01:20;;;;;;;;;;;23.20;42.90;;;;;;492220;242;1319;-74
2022/10/31 08:03:22;;;;;;;;;;;23.10;43.00;;;;;;492255;242;1208;-74
2022/10/31 08:05:23;;;;;;;;;;;23.10;43.20;;;;;;492230;242;1354;-74
2022/10/31 08:07:24;;;;;;;;;;;23.10;43.30;;;;;;492193;242;1179;-74
2022/10/31 08:09:26;;;;;;;;;;;23.20;43.40;;;;;;492207;242;1171;-74
2022/10/31 08:11:27;;;;;;;;;;;23.10;43.50;;;;;;492185;242;1303;-74
2022/10/31 08:13:28;;;;;;;;;;;23.20;43.50;;;;;;492205;242;1217;-74
2022/10/31 08:15:30;;;;;;;;;;;23.30;43.60;;;;;;492234;242;2167;-74
2022/10/31 08:17:31;;;;;;;;;;;23.30;43.60;;;;;;492227;242;1372;-74
2022/10/31 08:19:32;;;;;;;;;;;23.40;43.50;;;;;;492196;242;1183;-74
2022/10/31 08:21:33;;;;;;;;;;;23.50;43.50;;;;;;492174;242;1658;-74
2022/10/31 08:23:35;;;;;;;;;;;23.50;43.50;;;;;;492198;242;1270;-74
2022/10/31 08:25:36;;;;;;;;;;;23.60;43.50;;;;;;492230;242;1165;-74
2022/10/31 08:27:37;;;;;;;;;;;23.70;43.50;;;;;;492204;242;1178;-74
2022/10/31 08:29:39;;;;;;;;;;;23.70;43.50;;;;;;492258;242;1239;-74
2022/10/31 08:31:40;;;;;;;;;;;23.60;43.80;;;;;;492267;242;1223;-74
2022/10/31 08:33:41;;;;;;;;;;;23.50;43.90;;;;;;492225;242;1296;-74
2022/10/31 08:35:43;;;;;;;;;;;23.40;44.20;;;;;;492199;242;2153;-75
2022/10/31 08:37:44;;;;;;;;;;;23.40;44.30;;;;;;492228;242;1222;-74
2022/10/31 08:39:45;;;;;;;;;;;23.40;44.40;;;;;;492204;242;1287;-74
2022/10/31 08:41:47;;;;;;;;;;;23.30;44.60;;;;;;492245;242;1237;-76
2022/10/31 08:43:48;;;;;;;;;;;23.40;44.80;;;;;;492161;242;1197;-74
2022/10/31 08:45:49;;;;;;;;;;;23.40;44.90;;;;;;492226;242;1219;-74
2022/10/31 08:47:51;;;;;;;;;;;23.40;44.90;;;;;;492202;242;1682;-74
2022/10/31 08:49:52;;;;;;;;;;;23.40;44.90;;;;;;492197;242;1193;-74
2022/10/31 08:51:53;;;;;;;;;;;23.40;45.00;;;;;;492190;242;1187;-74
2022/10/31 08:53:55;;;;;;;;;;;23.30;45.10;;;;;;492140;242;1286;-74
2022/10/31 08:55:56;;;;;;;;;;;23.30;45.20;;;;;;492172;242;2188;-74
2022/10/31 08:57:57;;;;;;;;;;;23.40;45.30;;;;;;492226;242;1260;-74
2022/10/31 08:59:58;;;;;;;;;;;23.40;45.20;;;;;;492219;242;1196;-74
2022/10/31 09:02:00;;;;;;;;;;;23.50;45.00;;;;;;492278;242;1205;-74
2022/10/31 09:04:01;;;;;;;;;;;23.60;45.00;;;;;;492181;242;1130;-74
2022/10/31 09:06:03;;;;;;;;;;;23.60;45.20;;;;;;492240;242;1206;-74
2022/10/31 09:08:04;;;;;;;;;;;23.60;45.30;;;;;;492282;242;1288;-74
2022/10/31 09:10:05;;;;;;;;;;;23.50;45.60;;;;;;492234;242;1204;-74
2022/10/31 09:12:07;;;;;;;;;;;23.40;45.80;;;;;;492234;242;1331;-74
2022/10/31 09:14:08;;;;;;;;;;;23.30;45.90;;;;;;492243;242;1229;-74
2022/10/31 09:16:09;;;;;;;;;;;23.30;46.00;;;;;;492260;242;2184;-74
2022/10/31 09:18:11;;;;;;;;;;;23.40;45.90;;;;;;492193;242;1216;-74
2022/10/31 09:20:12;;;;;;;;;;;23.50;46.00;;;;;;492231;242;1212;-74
2022/10/31 09:22:13;;;;;;;;;;;23.50;45.90;;;;;;492124;242;1293;-74
2022/10/31 09:24:15;;;;;;;;;;;23.50;46.10;;;;;;492330;242;1311;-74
2022/10/31 09:26:16;;;;;;;;;;;23.50;46.10;;;;;;492164;242;1233;-73
2022/10/31 09:28:17;;;;;;;;;;;23.50;46.10;;;;;;492191;242;1322;-74
2022/10/31 09:30:19;;;;;;;;;;;23.50;46.20;;;;;;492230;242;1225;-74
2022/10/31 09:32:20;;;;;;;;;;;23.50;46.20;;;;;;492202;242;1414;-74
2022/10/31 09:34:21;;;;;;;;;;;23.60;46.20;;;;;;492187;242;1401;-74
2022/10/31 09:36:22;;;;;;;;;;;23.60;46.20;;;;;;492183;242;2188;-74
2022/10/31 09:38:24;;;;;;;;;;;23.50;46.30;;;;;;492200;242;1135;-74
2022/10/31 09:40:25;;;;;;;;;;;23.50;46.40;;;;;;492259;242;1195;-74
2022/10/31 09:42:27;;;;;;;;;;;23.50;46.50;;;;;;492198;242;1225;-74
2022/10/31 09:44:28;;;;;;;;;;;23.60;46.50;;;;;;492202;242;1227;-74
2022/10/31 09:46:29;;;;;;;;;;;23.60;46.50;;;;;;492236;242;1349;-74
2022/10/31 09:48:30;;;;;;;;;;;23.60;46.40;;;;;;492251;242;2206;-74
2022/10/31 09:50:32;;;;;;;;;;;23.60;46.40;;;;;;492318;242;1300;-74
2022/10/31 09:52:33;;;;;;;;;;;23.70;46.30;;;;;;492169;242;1279;-74
2022/10/31 09:54:34;;;;;;;;;;;23.60;46.50;;;;;;492271;242;1623;-74
2022/10/31 09:56:36;;;;;;;;;;;23.70;46.40;;;;;;492190;242;2241;-74
2022/10/31 09:58:37;;;;;;;;;;;23.60;46.40;;;;;;492259;242;1230;-74
2022/10/31 10:00:38;;;;;;;;;;;23.70;46.50;;;;;;492279;242;1221;-74
2022/10/31 10:02:40;;;;;;;;;;;23.60;46.60;;;;;;492205;242;1275;-74
2022/10/31 10:04:41;;;;;;;;;;;23.60;46.70;;;;;;492331;242;1268;-74
2022/10/31 10:06:42;;;;;;;;;;;23.50;46.80;;;;;;492241;242;1148;-74
2022/10/31 10:08:44;;;;;;;;;;;23.50;46.80;;;;;;492258;242;1205;-74
2022/10/31 10:10:45;;;;;;;;;;;23.50;46.90;;;;;;492226;242;1294;-74
2022/10/31 10:12:46;;;;;;;;;;;23.40;47.00;;;;;;492217;242;1210;-74
2022/10/31 10:14:48;;;;;;;;;;;23.40;47.00;;;;;;492229;242;1272;-74
2022/10/31 10:16:49;;;;;;;;;;;23.40;47.30;;;;;;492227;242;2180;-74
2022/10/31 10:18:50;;;;;;;;;;;23.40;47.30;;;;;;492226;242;1164;-74
2022/10/31 10:20:52;;;;;;;;;;;23.50;47.20;;;;;;492156;242;1644;-74
2022/10/31 10:22:53;;;;;;;;;;;23.40;47.20;;;;;;492111;242;1174;-74
2022/10/31 10:24:54;;;;;;;;;;;23.40;47.30;;;;;;492304;242;1304;-74
2022/10/31 10:26:56;;;;;;;;;;;23.40;47.40;;;;;;492188;242;1203;-74
2022/10/31 10:28:57;;;;;;;;;;;23.40;47.40;;;;;;492215;242;1546;-74
2022/10/31 10:30:58;;;;;;;;;;;23.40;47.50;;;;;;492191;242;1343;-74
2022/10/31 10:33:00;;;;;;;;;;;23.40;47.50;;;;;;492328;242;1139;-74
2022/10/31 10:35:01;;;;;;;;;;;23.40;47.50;;;;;;492165;242;1171;-74
2022/10/31 10:37:02;;;;;;;;;;;23.50;47.50;;;;;;492172;242;2168;-74
2022/10/31 10:39:03;;;;;;;;;;;23.50;47.40;;;;;;492193;242;1307;-74
2022/10/31 10:41:05;;;;;;;;;;;23.50;47.60;;;;;;492173;242;1175;-74
2022/10/31 10:43:22;;;;;;;;;;;23.40;47.50;;;;;;492175;242;1179;-74
2022/10/31 10:47:43;;;;;;;;;;;23.40;47.70;;;;;;492196;242;1225;-74
2022/10/31 10:49:44;;;;;;;;;;;23.40;47.70;;;;;;492347;242;1190;-74
2022/10/31 10:51:46;;;;;;;;;;;23.40;47.70;;;;;;492167;242;1255;-74
2022/10/31 10:54:00;;;;;;;;;;;23.40;47.80;;;;;;492175;242;1474;-74
2022/10/31 10:55:50;;;;;;;;;;;23.40;47.70;;;;;;492209;242;1755;-75
2022/10/31 10:57:53;;;;;;;;;;;23.40;47.70;;;;;;492152;242;2203;-74
2022/10/31 10:59:53;;;;;;;;;;;23.40;47.70;;;;;;492248;242;1920;-74
2022/10/31 11:01:55;;;;;;;;;;;23.40;47.80;;;;;;492169;242;1200;-74
2022/10/31 11:03:56;;;;;;;;;;;23.40;47.70;;;;;;492225;242;1180;-74
2022/10/31 11:05:58;;;;;;;;;;;23.40;47.50;;;;;;492226;242;1271;-74
2022/10/31 11:07:58;;;;;;;;;;;23.40;47.50;;;;;;492099;242;1976;-74
2022/10/31 11:10:00;;;;;;;;;;;23.50;47.50;;;;;;492235;242;1186;-74
2022/10/31 11:12:01;;;;;;;;;;;23.40;47.60;;;;;;492108;242;1319;-74
2022/10/31 11:14:02;;;;;;;;;;;23.40;47.60;;;;;;492195;242;1360;-75
2022/10/31 11:16:04;;;;;;;;;;;23.40;47.60;;;;;;492223;242;1241;-74
2022/10/31 11:18:05;;;;;;;;;;;23.40;47.60;;;;;;492205;242;2171;-74
2022/10/31 11:20:07;;;;;;;;;;;23.40;47.50;;;;;;492185;242;1195;-74
2022/10/31 11:22:08;;;;;;;;;;;23.40;47.50;;;;;;492098;242;1266;-74
2022/10/31 11:24:09;;;;;;;;;;;23.40;47.50;;;;;;492114;242;1168;-74
2022/10/31 11:26:11;;;;;;;;;;;23.40;47.50;;;;;;492153;242;1277;-74
2022/10/31 11:28:12;;;;;;;;;;;23.40;47.50;;;;;;492173;242;1203;-74
2022/10/31 11:30:13;;;;;;;;;;;23.40;47.60;;;;;;492144;242;1272;-74
2022/10/31 11:32:15;;;;;;;;;;;23.40;47.50;;;;;;491898;242;1229;-74
2022/10/31 11:34:16;;;;;;;;;;;23.50;47.30;;;;;;492163;242;1328;-74
2022/10/31 11:36:17;;;;;;;;;;;23.70;47.00;;;;;;491932;242;2164;-74
2022/10/31 11:38:19;;;;;;;;;;;23.90;46.60;;;;;;492118;242;1286;-74
2022/10/31 11:40:20;;;;;;;;;;;24.00;46.40;;;;;;492126;242;1227;-74
2022/10/31 11:42:22;;;;;;;;;;;24.10;46.30;;;;;;491954;242;1872;-74
2022/10/31 11:44:24;;;;;;;;;;;24.10;46.30;;;;;;492175;242;1242;-74
2022/10/31 11:46:25;;;;;;;;;;;24.10;46.20;;;;;;492042;242;1566;-74
2022/10/31 11:48:26;;;;;;;;;;;24.10;46.20;;;;;;492152;242;1291;-74
2022/10/31 11:50:28;;;;;;;;;;;24.10;46.20;;;;;;492178;242;1421;-74
2022/10/31 11:52:29;;;;;;;;;;;24.20;46.20;;;;;;492094;242;1318;-74
2022/10/31 11:54:30;;;;;;;;;;;24.20;46.20;;;;;;492170;242;1191;-74
2022/10/31 11:56:32;;;;;;;;;;;24.30;46.20;;;;;;492161;242;2156;-74
2022/10/31 11:58:33;;;;;;;;;;;24.20;46.20;;;;;;492183;242;1283;-74